sensor_id;sensor_type;location;lat;lon;timestamp;pressure;altitude;pressure_sealevel;temperature;humidity
14594;BME280;7383;52.354;9.756;2022-08-18T00:01:37;-12865.59;;;23.80;100.00
14594;BME280;7383;52.354;9.756;2022-08-18T00:04:05;-12865.69;;;23.80;100.00
14594;BME280;7383;52.354;9.756;2022-08-18T00:06:31;-12865.34;;;23.78;100.00
14594;BME280;7383;52.354;9.756;2022-08-18T00:08:59;-12864.81;;;23.75;100.00
14594;BME280;7383;52.354;9.756;2022-08-18T00:11:27;-12864.91;;;23.76;100.00
14594;BME280;7383;52.354;9.756;2022-08-18T00:13:55;-12865.09;;;23.77;100.00
14594;BME280;7383;52.354;9.756;2022-08-18T00:16:21;-12864.47;;;23.73;100.00
14594;BME280;7383;52.354;9.756;2022-08-18T00:18:48;-12864.41;;;23.73;100.00
14594;BME280;7383;52.354;9.756;2022-08-18T00:21:14;-12864.75;;;23.75;100.00
14594;BME280;7383;52.354;9.756;2022-08-18T00:23:41;-12864.47;;;23.73;100.00
14594;BME280;7383;52.354;9.756;2022-08-18T00:26:07;-12864.41;;;23.73;100.00
14594;BME280;7383;52.354;9.756;2022-08-18T00:28:34;-12863.81;;;23.69;100.00
14594;BME280;7383;52.354;9.756;2022-08-18T00:31:03;-12864.16;;;23.71;100.00
14594;BME280;7383;52.354;9.756;2022-08-18T00:33:30;-12863.38;;;23.67;100.00
14594;BME280;7383;52.354;9.756;2022-08-18T00:35:57;-12863.28;;;23.66;100.00
14594;BME280;7383;52.354;9.756;2022-08-18T00:38:23;-12863.63;;;23.68;100.00
14594;BME280;7383;52.354;9.756;2022-08-18T00:40:51;-12863.81;;;23.69;100.00
14594;BME280;7383;52.354;9.756;2022-08-18T00:46:42;-12863.22;;;23.66;100.00
14594;BME280;7383;52.354;9.756;2022-08-18T00:49:09;-12863.03;;;23.65;100.00
14594;BME280;7383;52.354;9.756;2022-08-18T00:51:38;-12863.28;;;23.66;100.00
14594;BME280;7383;52.354;9.756;2022-08-18T00:54:14;-12863.28;;;23.66;100.00
14594;BME280;7383;52.354;9.756;2022-08-18T00:56:44;-12863.47;;;23.67;100.00
14594;BME280;7383;52.354;9.756;2022-08-18T00:59:16;-12863.38;;;23.67;100.00
14594;BME280;7383;52.354;9.756;2022-08-18T01:01:53;-12863.72;;;23.69;100.00
14594;BME280;7383;52.354;9.756;2022-08-18T01:04:23;-12863.22;;;23.66;100.00
14594;BME280;7383;52.354;9.756;2022-08-18T01:06:52;-12863.13;;;23.65;100.00
14594;BME280;7383;52.354;9.756;2022-08-18T01:09:23;-12862.53;;;23.62;100.00
14594;BME280;7383;52.354;9.756;2022-08-18T01:11:50;-12862.53;;;23.62;100.00
14594;BME280;7383;52.354;9.756;2022-08-18T01:14:17;-12862.34;;;23.61;100.00
14594;BME280;7383;52.354;9.756;2022-08-18T01:16:44;-12862.19;;;23.60;100.00
14594;BME280;7383;52.354;9.756;2022-08-18T01:19:31;-12862.19;;;23.60;100.00
14594;BME280;7383;52.354;9.756;2022-08-18T01:22:21;-12862.59;;;23.62;100.00
14594;BME280;7383;52.354;9.756;2022-08-18T01:24:53;-12862.25;;;23.60;100.00
14594;BME280;7383;52.354;9.756;2022-08-18T01:27:39;-12861.94;;;23.58;100.00
14594;BME280;7383;52.354;9.756;2022-08-18T01:30:09;-12861.16;;;23.53;100.00
14594;BME280;7383;52.354;9.756;2022-08-18T01:32:37;-12860.03;;;23.47;100.00
14594;BME280;7383;52.354;9.756;2022-08-18T01:35:05;-12860.13;;;23.47;100.00
14594;BME280;7383;52.354;9.756;2022-08-18T01:37:34;-12860.13;;;23.47;100.00
14594;BME280;7383;52.354;9.756;2022-08-18T01:40:03;-12859.97;;;23.46;100.00
14594;BME280;7383;52.354;9.756;2022-08-18T01:42:31;-12859.38;;;23.43;100.00
14594;BME280;7383;52.354;9.756;2022-08-18T01:44:57;-12858.94;;;23.40;100.00
14594;BME280;7383;52.354;9.756;2022-08-18T01:47:24;-12858.34;;;23.37;100.00
14594;BME280;7383;52.354;9.756;2022-08-18T01:49:52;-12857.13;;;23.30;100.00
14594;BME280;7383;52.354;9.756;2022-08-18T01:52:20;-12857.06;;;23.29;100.00
14594;BME280;7383;52.354;9.756;2022-08-18T01:54:47;-12856.72;;;23.27;100.00
14594;BME280;7383;52.354;9.756;2022-08-18T01:57:16;-12856.78;;;23.28;100.00
14594;BME280;7383;52.354;9.756;2022-08-18T01:59:43;-12856.78;;;23.28;100.00
14594;BME280;7383;52.354;9.756;2022-08-18T02:02:13;-12856.78;;;23.28;100.00
14594;BME280;7383;52.354;9.756;2022-08-18T02:04:42;-12856.28;;;23.25;100.00
14594;BME280;7383;52.354;9.756;2022-08-18T02:07:11;-12856.19;;;23.24;100.00
14594;BME280;7383;52.354;9.756;2022-08-18T02:09:40;-12855.84;;;23.22;100.00
14594;BME280;7383;52.354;9.756;2022-08-18T02:12:07;-12855.69;;;23.21;100.00
14594;BME280;7383;52.354;9.756;2022-08-18T02:14:35;-12854.84;;;23.16;100.00
14594;BME280;7383;52.354;9.756;2022-08-18T02:17:04;-12854.31;;;23.13;100.00
14594;BME280;7383;52.354;9.756;2022-08-18T02:19:33;-12853.72;;;23.10;100.00
14594;BME280;7383;52.354;9.756;2022-08-18T02:22:00;-12853.03;;;23.05;100.00
14594;BME280;7383;52.354;9.756;2022-08-18T02:24:26;-12852.94;;;23.05;100.00
14594;BME280;7383;52.354;9.756;2022-08-18T02:26:52;-12852.44;;;23.02;100.00
14594;BME280;7383;52.354;9.756;2022-08-18T02:29:19;-12852.00;;;22.99;100.00
14594;BME280;7383;52.354;9.756;2022-08-18T02:31:47;-12852.09;;;23.00;100.00
14594;BME280;7383;52.354;9.756;2022-08-18T02:34:13;-12852.53;;;23.02;100.00
14594;BME280;7383;52.354;9.756;2022-08-18T02:36:40;-12852.78;;;23.04;100.00
14594;BME280;7383;52.354;9.756;2022-08-18T02:39:06;-12852.59;;;23.03;100.00
14594;BME280;7383;52.354;9.756;2022-08-18T02:41:33;-12852.19;;;23.00;100.00
14594;BME280;7383;52.354;9.756;2022-08-18T02:44:02;-12851.75;;;22.98;100.00
14594;BME280;7383;52.354;9.756;2022-08-18T02:46:29;-12851.75;;;22.98;100.00
14594;BME280;7383;52.354;9.756;2022-08-18T02:48:58;-12851.41;;;22.96;100.00
14594;BME280;7383;52.354;9.756;2022-08-18T02:51:24;-12851.31;;;22.95;100.00
14594;BME280;7383;52.354;9.756;2022-08-18T02:53:51;-12851.25;;;22.95;100.00
14594;BME280;7383;52.354;9.756;2022-08-18T02:56:20;-12850.47;;;22.90;100.00
14594;BME280;7383;52.354;9.756;2022-08-18T02:58:50;-12850.13;;;22.88;100.00
14594;BME280;7383;52.354;9.756;2022-08-18T03:01:18;-12849.19;;;22.83;100.00
14594;BME280;7383;52.354;9.756;2022-08-18T03:03:44;-12848.75;;;22.80;100.00
14594;BME280;7383;52.354;9.756;2022-08-18T03:06:13;-12848.34;;;22.78;100.00
14594;BME280;7383;52.354;9.756;2022-08-18T03:08:39;-12847.31;;;22.72;100.00
14594;BME280;7383;52.354;9.756;2022-08-18T03:11:05;-12846.88;;;22.69;100.00
14594;BME280;7383;52.354;9.756;2022-08-18T03:13:32;-12846.03;;;22.64;100.00
14594;BME280;7383;52.354;9.756;2022-08-18T03:15:58;-12846.44;;;22.67;100.00
14594;BME280;7383;52.354;9.756;2022-08-18T03:18:24;-12846.09;;;22.65;100.00
14594;BME280;7383;52.354;9.756;2022-08-18T03:20:51;-12845.44;;;22.61;100.00
14594;BME280;7383;52.354;9.756;2022-08-18T03:23:19;-12845.69;;;22.62;100.00
14594;BME280;7383;52.354;9.756;2022-08-18T03:25:47;-12845.59;;;22.62;100.00
14594;BME280;7383;52.354;9.756;2022-08-18T03:28:14;-12845.44;;;22.61;100.00
14594;BME280;7383;52.354;9.756;2022-08-18T03:30:41;-12843.63;;;22.50;100.00
14594;BME280;7383;52.354;9.756;2022-08-18T03:33:09;-12844.06;;;22.52;100.00
14594;BME280;7383;52.354;9.756;2022-08-18T03:35:35;-12843.47;;;22.49;100.00
14594;BME280;7383;52.354;9.756;2022-08-18T03:38:03;-12843.78;;;22.51;100.00
14594;BME280;7383;52.354;9.756;2022-08-18T03:40:31;-12842.84;;;22.45;100.00
14594;BME280;7383;52.354;9.756;2022-08-18T03:42:57;-12842.59;;;22.44;100.00
14594;BME280;7383;52.354;9.756;2022-08-18T03:45:24;-12842.50;;;22.43;100.00
14594;BME280;7383;52.354;9.756;2022-08-18T03:47:53;-12842.34;;;22.42;100.00
14594;BME280;7383;52.354;9.756;2022-08-18T03:50:19;-12841.06;;;22.35;100.00
14594;BME280;7383;52.354;9.756;2022-08-18T03:52:49;-12841.41;;;22.37;100.00
14594;BME280;7383;52.354;9.756;2022-08-18T03:55:16;-12841.56;;;22.38;100.00
14594;BME280;7383;52.354;9.756;2022-08-18T03:57:44;-12841.91;;;22.40;100.00
14594;BME280;7383;52.354;9.756;2022-08-18T04:00:11;-12841.56;;;22.38;100.00
14594;BME280;7383;52.354;9.756;2022-08-18T04:02:38;-12842.09;;;22.41;100.00
14594;BME280;7383;52.354;9.756;2022-08-18T04:05:06;-12841.56;;;22.38;100.00
14594;BME280;7383;52.354;9.756;2022-08-18T04:07:34;-12841.06;;;22.35;100.00
14594;BME280;7383;52.354;9.756;2022-08-18T04:10:00;-12840.63;;;22.32;100.00
14594;BME280;7383;52.354;9.756;2022-08-18T04:12:27;-12841.41;;;22.37;100.00
14594;BME280;7383;52.354;9.756;2022-08-18T04:14:55;-12841.75;;;22.39;100.00
14594;BME280;7383;52.354;9.756;2022-08-18T04:17:22;-12841.41;;;22.37;100.00
14594;BME280;7383;52.354;9.756;2022-08-18T04:19:49;-12840.88;;;22.34;100.00
14594;BME280;7383;52.354;9.756;2022-08-18T04:22:16;-12841.41;;;22.37;100.00
14594;BME280;7383;52.354;9.756;2022-08-18T04:24:43;-12841.66;;;22.38;100.00
14594;BME280;7383;52.354;9.756;2022-08-18T04:27:09;-12841.22;;;22.36;100.00
14594;BME280;7383;52.354;9.756;2022-08-18T04:29:37;-12841.66;;;22.38;100.00
14594;BME280;7383;52.354;9.756;2022-08-18T04:32:06;-12842.16;;;22.41;100.00
14594;BME280;7383;52.354;9.756;2022-08-18T04:34:33;-12842.50;;;22.43;100.00
14594;BME280;7383;52.354;9.756;2022-08-18T04:37:00;-12843.13;;;22.47;100.00
14594;BME280;7383;52.354;9.756;2022-08-18T04:39:28;-12843.78;;;22.51;100.00
14594;BME280;7383;52.354;9.756;2022-08-18T04:41:56;-12843.97;;;22.52;100.00
14594;BME280;7383;52.354;9.756;2022-08-18T04:44:23;-12843.53;;;22.49;100.00
14594;BME280;7383;52.354;9.756;2022-08-18T04:46:51;-12843.03;;;22.46;100.00
14594;BME280;7383;52.354;9.756;2022-08-18T04:49:22;-12843.28;;;22.48;100.00
14594;BME280;7383;52.354;9.756;2022-08-18T04:51:51;-12843.53;;;22.49;100.00
14594;BME280;7383;52.354;9.756;2022-08-18T04:54:32;-12842.69;;;22.44;100.00
14594;BME280;7383;52.354;9.756;2022-08-18T04:57:07;-12843.53;;;22.49;100.00
14594;BME280;7383;52.354;9.756;2022-08-18T04:59:35;-12842.69;;;22.44;100.00
14594;BME280;7383;52.354;9.756;2022-08-18T05:02:02;-12842.50;;;22.43;100.00
14594;BME280;7383;52.354;9.756;2022-08-18T05:04:33;-12842.00;;;22.40;100.00
14594;BME280;7383;52.354;9.756;2022-08-18T05:07:02;-12841.41;;;22.37;100.00
14594;BME280;7383;52.354;9.756;2022-08-18T05:09:32;-12841.16;;;22.35;100.00
14594;BME280;7383;52.354;9.756;2022-08-18T05:12:00;-12840.47;;;22.31;100.00
14594;BME280;7383;52.354;9.756;2022-08-18T05:14:28;-12841.06;;;22.35;100.00
14594;BME280;7383;52.354;9.756;2022-08-18T05:16:56;-12841.31;;;22.36;100.00
14594;BME280;7383;52.354;9.756;2022-08-18T05:19:23;-12841.56;;;22.38;100.00
14594;BME280;7383;52.354;9.756;2022-08-18T05:21:56;-12841.81;;;22.39;100.00
14594;BME280;7383;52.354;9.756;2022-08-18T05:24:24;-12842.09;;;22.41;100.00
14594;BME280;7383;52.354;9.756;2022-08-18T05:26:54;-12843.38;;;22.48;100.00
14594;BME280;7383;52.354;9.756;2022-08-18T05:29:21;-12844.22;;;22.53;100.00
14594;BME280;7383;52.354;9.756;2022-08-18T05:31:50;-12845.09;;;22.58;100.00
14594;BME280;7383;52.354;9.756;2022-08-18T05:34:18;-12845.69;;;22.62;100.00
14594;BME280;7383;52.354;9.756;2022-08-18T05:36:57;-12846.97;;;22.70;100.00
14594;BME280;7383;52.354;9.756;2022-08-18T05:39:29;-12846.88;;;22.69;100.00
14594;BME280;7383;52.354;9.756;2022-08-18T05:42:04;-12847.75;;;22.74;100.00
14594;BME280;7383;52.354;9.756;2022-08-18T05:44:38;-12847.66;;;22.74;100.00
14594;BME280;7383;52.354;9.756;2022-08-18T05:47:10;-12846.53;;;22.67;100.00
14594;BME280;7383;52.354;9.756;2022-08-18T05:49:39;-12846.38;;;22.66;100.00
14594;BME280;7383;52.354;9.756;2022-08-18T05:52:14;-12846.03;;;22.64;100.00
14594;BME280;7383;52.354;9.756;2022-08-18T05:55:08;-12847.13;;;22.71;100.00
14594;BME280;7383;52.354;9.756;2022-08-18T05:57:57;-12848.94;;;22.81;100.00
14594;BME280;7383;52.354;9.756;2022-08-18T06:00:31;-12848.94;;;22.81;100.00
14594;BME280;7383;52.354;9.756;2022-08-18T06:03:06;-12850.03;;;22.88;100.00
14594;BME280;7383;52.354;9.756;2022-08-18T06:09:04;-12848.41;;;22.78;100.00
14594;BME280;7383;52.354;9.756;2022-08-18T06:11:36;-12847.75;;;22.74;100.00
14594;BME280;7383;52.354;9.756;2022-08-18T06:14:03;-12846.78;;;22.69;100.00
14594;BME280;7383;52.354;9.756;2022-08-18T06:16:43;-12848.25;;;22.77;100.00
14594;BME280;7383;52.354;9.756;2022-08-18T06:19:26;-12846.88;;;22.69;100.00
14594;BME280;7383;52.354;9.756;2022-08-18T06:22:05;-12844.66;;;22.56;100.00
14594;BME280;7383;52.354;9.756;2022-08-18T06:24:56;-12844.41;;;22.54;100.00
14594;BME280;7383;52.354;9.756;2022-08-18T06:27:37;-12844.13;;;22.53;100.00
14594;BME280;7383;52.354;9.756;2022-08-18T06:30:21;-12844.41;;;22.54;100.00
14594;BME280;7383;52.354;9.756;2022-08-18T06:33:00;-12843.63;;;22.50;100.00
14594;BME280;7383;52.354;9.756;2022-08-18T06:35:41;-12844.06;;;22.52;100.00
14594;BME280;7383;52.354;9.756;2022-08-18T06:39:06;-12844.13;;;22.53;100.00
14594;BME280;7383;52.354;9.756;2022-08-18T06:41:21;-12845.16;;;22.59;100.00
14594;BME280;7383;52.354;9.756;2022-08-18T06:44:00;-12846.53;;;22.67;100.00
14594;BME280;7383;52.354;9.756;2022-08-18T06:46:43;-12846.53;;;22.67;100.00
14594;BME280;7383;52.354;9.756;2022-08-18T06:49:23;-12847.13;;;22.71;100.00
14594;BME280;7383;52.354;9.756;2022-08-18T06:51:53;-12846.97;;;22.70;100.00
14594;BME280;7383;52.354;9.756;2022-08-18T06:54:28;-12848.50;;;22.79;100.00
14594;BME280;7383;52.354;9.756;2022-08-18T06:59:53;-12845.34;;;22.60;100.00
14594;BME280;7383;52.354;9.756;2022-08-18T07:05:28;-12845.44;;;22.61;100.00
14594;BME280;7383;52.354;9.756;2022-08-18T07:08:05;-12846.19;;;22.65;100.00
14594;BME280;7383;52.354;9.756;2022-08-18T07:10:35;-12846.53;;;22.67;100.00
14594;BME280;7383;52.354;9.756;2022-08-18T07:13:22;-12846.88;;;22.69;100.00
14594;BME280;7383;52.354;9.756;2022-08-18T07:15:52;-12846.28;;;22.66;100.00
14594;BME280;7383;52.354;9.756;2022-08-18T07:18:28;-12848.06;;;22.76;100.00
14594;BME280;7383;52.354;9.756;2022-08-18T07:20:59;-12846.53;;;22.67;100.00
14594;BME280;7383;52.354;9.756;2022-08-18T07:23:30;-12847.06;;;22.70;100.00
14594;BME280;7383;52.354;9.756;2022-08-18T07:26:05;-12847.91;;;22.75;100.00
14594;BME280;7383;52.354;9.756;2022-08-18T07:28:35;-12849.34;;;22.84;100.00
14594;BME280;7383;52.354;9.756;2022-08-18T07:31:19;-12849.44;;;22.84;100.00
14594;BME280;7383;52.354;9.756;2022-08-18T07:33:55;-12848.59;;;22.79;100.00
14594;BME280;7383;52.354;9.756;2022-08-18T07:36:40;-12848.06;;;22.76;100.00
14594;BME280;7383;52.354;9.756;2022-08-18T07:39:12;-12848.94;;;22.81;100.00
14594;BME280;7383;52.354;9.756;2022-08-18T07:41:50;-12850.56;;;22.91;100.00
14594;BME280;7383;52.354;9.756;2022-08-18T07:44:22;-12850.38;;;22.90;100.00
14594;BME280;7383;52.354;9.756;2022-08-18T07:46:56;-12851.84;;;22.98;100.00
14594;BME280;7383;52.354;9.756;2022-08-18T07:49:27;-12850.97;;;22.93;100.00
14594;BME280;7383;52.354;9.756;2022-08-18T07:51:57;-12851.59;;;22.97;100.00
14594;BME280;7383;52.354;9.756;2022-08-18T07:54:37;-12852.25;;;23.01;100.00
14594;BME280;7383;52.354;9.756;2022-08-18T07:57:12;-12851.75;;;22.98;100.00
14594;BME280;7383;52.354;9.756;2022-08-18T07:59:47;-12852.94;;;23.05;100.00
14594;BME280;7383;52.354;9.756;2022-08-18T08:02:35;-12852.78;;;23.04;100.00
14594;BME280;7383;52.354;9.756;2022-08-18T08:05:11;-12852.53;;;23.02;100.00
14594;BME280;7383;52.354;9.756;2022-08-18T08:07:45;-12851.59;;;22.97;100.00
14594;BME280;7383;52.354;9.756;2022-08-18T08:10:27;-12850.97;;;22.93;100.00
14594;BME280;7383;52.354;9.756;2022-08-18T08:13:07;-12851.06;;;22.94;100.00
14594;BME280;7383;52.354;9.756;2022-08-18T08:15:46;-12851.75;;;22.98;100.00
14594;BME280;7383;52.354;9.756;2022-08-18T08:18:28;-12852.78;;;23.04;100.00
14594;BME280;7383;52.354;9.756;2022-08-18T08:21:02;-12854.84;;;23.16;100.00
14594;BME280;7383;52.354;9.756;2022-08-18T08:23:49;-12856.88;;;23.28;100.00
14594;BME280;7383;52.354;9.756;2022-08-18T08:26:35;-12858.75;;;23.39;100.00
14594;BME280;7383;52.354;9.756;2022-08-18T08:29:16;-12860.03;;;23.47;100.00
14594;BME280;7383;52.354;9.756;2022-08-18T08:31:49;-12859.44;;;23.43;100.00
14594;BME280;7383;52.354;9.756;2022-08-18T08:34:24;-12858.84;;;23.40;100.00
14594;BME280;7383;52.354;9.756;2022-08-18T08:36:57;-12858.00;;;23.35;100.00
14594;BME280;7383;52.354;9.756;2022-08-18T08:39:33;-12858.00;;;23.35;100.00
14594;BME280;7383;52.354;9.756;2022-08-18T08:42:05;-12856.88;;;23.28;100.00
14594;BME280;7383;52.354;9.756;2022-08-18T08:44:36;-12856.47;;;23.26;100.00
14594;BME280;7383;52.354;9.756;2022-08-18T08:47:09;-12855.59;;;23.21;100.00
14594;BME280;7383;52.354;9.756;2022-08-18T08:49:44;-12855.19;;;23.18;100.00
14594;BME280;7383;52.354;9.756;2022-08-18T08:52:15;-12855.00;;;23.17;100.00
14594;BME280;7383;52.354;9.756;2022-08-18T08:54:49;-12855.69;;;23.21;100.00
14594;BME280;7383;52.354;9.756;2022-08-18T08:57:18;-12855.84;;;23.22;100.00
14594;BME280;7383;52.354;9.756;2022-08-18T08:59:47;-12856.72;;;23.27;100.00
14594;BME280;7383;52.354;9.756;2022-08-18T09:02:31;-12855.09;;;23.18;100.00
14594;BME280;7383;52.354;9.756;2022-08-18T09:05:09;-12855.69;;;23.21;100.00
14594;BME280;7383;52.354;9.756;2022-08-18T09:07:50;-12855.59;;;23.21;100.00
14594;BME280;7383;52.354;9.756;2022-08-18T09:10:37;-12856.78;;;23.28;100.00
14594;BME280;7383;52.354;9.756;2022-08-18T09:13:26;-12858.06;;;23.35;100.00
14594;BME280;7383;52.354;9.756;2022-08-18T09:16:09;-12859.88;;;23.46;100.00
14594;BME280;7383;52.354;9.756;2022-08-18T09:18:47;-12860.91;;;23.52;100.00
14594;BME280;7383;52.354;9.756;2022-08-18T09:21:25;-12861.16;;;23.53;100.00
14594;BME280;7383;52.354;9.756;2022-08-18T09:24:04;-12862.00;;;23.59;100.00
14594;BME280;7383;52.354;9.756;2022-08-18T09:26:46;-12861.66;;;23.57;100.00
14594;BME280;7383;52.354;9.756;2022-08-18T09:29:21;-12861.31;;;23.55;100.00
14594;BME280;7383;52.354;9.756;2022-08-18T09:35:03;-12864.31;;;23.72;100.00
14594;BME280;7383;52.354;9.756;2022-08-18T10:31:23;-12873.09;;;24.24;100.00
14594;BME280;7383;52.354;9.756;2022-08-18T10:34:09;-12872.34;;;24.20;100.00
14594;BME280;7383;52.354;9.756;2022-08-18T10:36:45;-12872.09;;;24.18;100.00
14594;BME280;7383;52.354;9.756;2022-08-18T10:39:46;-12873.69;;;24.28;100.00
14594;BME280;7383;52.354;9.756;2022-08-18T10:53:09;-12877.28;;;24.49;100.00
14594;BME280;7383;52.354;9.756;2022-08-18T11:50:07;-12899.00;;;25.78;100.00
14594;BME280;7383;52.354;9.756;2022-08-18T11:52:47;-12900.19;;;25.85;100.00
14594;BME280;7383;52.354;9.756;2022-08-18T11:55:28;-12901.38;;;25.92;100.00
14594;BME280;7383;52.354;9.756;2022-08-18T12:04:08;-12905.81;;;26.18;100.00
14594;BME280;7383;52.354;9.756;2022-08-18T12:06:55;-12907.34;;;26.27;100.00
14594;BME280;7383;52.354;9.756;2022-08-18T12:09:32;-12908.28;;;26.33;100.00
14594;BME280;7383;52.354;9.756;2022-08-18T12:12:04;-12908.28;;;26.33;100.00
14594;BME280;7383;52.354;9.756;2022-08-18T12:14:52;-12910.56;;;26.47;100.00
14594;BME280;7383;52.354;9.756;2022-08-18T12:17:21;-12911.25;;;26.51;100.00
14594;BME280;7383;52.354;9.756;2022-08-18T12:19:48;-12911.66;;;26.53;100.00
14594;BME280;7383;52.354;9.756;2022-08-18T12:22:37;-12913.03;;;26.61;100.00
14594;BME280;7383;52.354;9.756;2022-08-18T12:25:18;-12916.84;;;26.84;100.00
14594;BME280;7383;52.354;9.756;2022-08-18T12:27:48;-12917.94;;;26.90;100.00
14594;BME280;7383;52.354;9.756;2022-08-18T12:41:35;-12930.66;;;27.66;100.00
14594;BME280;7383;52.354;9.756;2022-08-18T12:51:25;-12927.72;;;27.49;100.00
14594;BME280;7383;52.354;9.756;2022-08-18T12:53:57;-12930.50;;;27.65;100.00
14594;BME280;7383;52.354;9.756;2022-08-18T12:56:49;-12930.59;;;27.66;100.00
14594;BME280;7383;52.354;9.756;2022-08-18T12:59:16;-12928.31;;;27.52;100.00
14594;BME280;7383;52.354;9.756;2022-08-18T13:01:49;-12926.78;;;27.43;100.00
14594;BME280;7383;52.354;9.756;2022-08-18T13:54:17;-12939.31;;;28.18;100.00
14594;BME280;7383;52.354;9.756;2022-08-18T13:56:48;-12936.00;;;27.98;100.00
14594;BME280;7383;52.354;9.756;2022-08-18T13:59:17;-12933.56;;;27.83;100.00
14594;BME280;7383;52.354;9.756;2022-08-18T14:02:00;-12930.75;;;27.67;100.00
14594;BME280;7383;52.354;9.756;2022-08-18T14:04:35;-12930.00;;;27.62;100.00
14594;BME280;7383;52.354;9.756;2022-08-18T14:07:06;-12928.63;;;27.54;100.00
14594;BME280;7383;52.354;9.756;2022-08-18T14:09:51;-12925.41;;;27.35;100.00
14594;BME280;7383;52.354;9.756;2022-08-18T14:12:19;-12924.16;;;27.27;100.00
14594;BME280;7383;52.354;9.756;2022-08-18T14:14:47;-12922.78;;;27.19;100.00
14594;BME280;7383;52.354;9.756;2022-08-18T14:17:18;-12920.41;;;27.05;100.00
14594;BME280;7383;52.354;9.756;2022-08-18T14:19:45;-12920.31;;;27.05;100.00
14594;BME280;7383;52.354;9.756;2022-08-18T14:22:29;-12919.72;;;27.01;100.00
14594;BME280;7383;52.354;9.756;2022-08-18T14:25:14;-12920.06;;;27.03;100.00
14594;BME280;7383;52.354;9.756;2022-08-18T14:27:59;-12919.06;;;26.97;100.00
14594;BME280;7383;52.354;9.756;2022-08-18T14:30:26;-12919.13;;;26.98;100.00
14594;BME280;7383;52.354;9.756;2022-08-18T14:32:57;-12918.38;;;26.93;100.00
14594;BME280;7383;52.354;9.756;2022-08-18T14:35:31;-12919.13;;;26.98;100.00
14594;BME280;7383;52.354;9.756;2022-08-18T14:38:07;-12919.66;;;27.01;100.00
14594;BME280;7383;52.354;9.756;2022-08-18T14:40:37;-12919.72;;;27.01;100.00
14594;BME280;7383;52.354;9.756;2022-08-18T14:43:10;-12919.97;;;27.03;100.00
14594;BME280;7383;52.354;9.756;2022-08-18T14:45:40;-12919.56;;;27.00;100.00
14594;BME280;7383;52.354;9.756;2022-08-18T14:48:14;-12918.03;;;26.91;100.00
14594;BME280;7383;52.354;9.756;2022-08-18T14:50:44;-12918.13;;;26.91;100.00
14594;BME280;7383;52.354;9.756;2022-08-18T14:53:16;-12917.19;;;26.86;100.00
14594;BME280;7383;52.354;9.756;2022-08-18T14:55:50;-12915.75;;;26.77;100.00
14594;BME280;7383;52.354;9.756;2022-08-18T14:58:18;-12914.38;;;26.69;100.00
14594;BME280;7383;52.354;9.756;2022-08-18T15:00:44;-12915.41;;;26.75;100.00
14594;BME280;7383;52.354;9.756;2022-08-18T15:03:26;-12914.91;;;26.72;100.00
14594;BME280;7383;52.354;9.756;2022-08-18T15:05:57;-12914.13;;;26.68;100.00
14594;BME280;7383;52.354;9.756;2022-08-18T15:08:28;-12913.28;;;26.63;100.00
14594;BME280;7383;52.354;9.756;2022-08-18T15:11:05;-12911.84;;;26.54;100.00
14594;BME280;7383;52.354;9.756;2022-08-18T15:13:42;-12911.25;;;26.51;100.00
14594;BME280;7383;52.354;9.756;2022-08-18T15:50:41;-12907.69;;;26.29;100.00
14594;BME280;7383;52.354;9.756;2022-08-18T15:53:23;-12907.94;;;26.31;100.00
14594;BME280;7383;52.354;9.756;2022-08-18T15:56:45;-12906.81;;;26.24;100.00
14594;BME280;7383;52.354;9.756;2022-08-18T15:59:43;-12906.66;;;26.23;100.00
14594;BME280;7383;52.354;9.756;2022-08-18T16:02:13;-12906.50;;;26.22;100.00
14594;BME280;7383;52.354;9.756;2022-08-18T16:04:44;-12906.56;;;26.23;100.00
14594;BME280;7383;52.354;9.756;2022-08-18T16:11:04;-12908.44;;;26.34;100.00
14594;BME280;7383;52.354;9.756;2022-08-18T16:13:55;-12908.44;;;26.34;100.00
14594;BME280;7383;52.354;9.756;2022-08-18T16:16:39;-12908.44;;;26.34;100.00
14594;BME280;7383;52.354;9.756;2022-08-18T16:19:05;-12908.69;;;26.35;100.00
14594;BME280;7383;52.354;9.756;2022-08-18T16:21:34;-12908.59;;;26.35;100.00
14594;BME280;7383;52.354;9.756;2022-08-18T16:24:23;-12908.44;;;26.34;100.00
14594;BME280;7383;52.354;9.756;2022-08-18T16:27:06;-12909.78;;;26.42;100.00
14594;BME280;7383;52.354;9.756;2022-08-18T16:29:35;-12911.00;;;26.49;100.00
14594;BME280;7383;52.354;9.756;2022-08-18T16:32:04;-12911.41;;;26.52;100.00
14594;BME280;7383;52.354;9.756;2022-08-18T16:34:52;-12911.00;;;26.49;100.00
14594;BME280;7383;52.354;9.756;2022-08-18T16:37:44;-12910.72;;;26.48;100.00
14594;BME280;7383;52.354;9.756;2022-08-18T16:40:38;-12909.19;;;26.38;100.00
14594;BME280;7383;52.354;9.756;2022-08-18T16:43:21;-12908.88;;;26.36;100.00
14594;BME280;7383;52.354;9.756;2022-08-18T16:49:24;-12908.59;;;26.35;100.00
14594;BME280;7383;52.354;9.756;2022-08-18T16:52:29;-12908.28;;;26.33;100.00
14594;BME280;7383;52.354;9.756;2022-08-18T16:55:23;-12908.59;;;26.35;100.00
14594;BME280;7383;52.354;9.756;2022-08-18T17:01:31;-12906.41;;;26.22;100.00
14594;BME280;7383;52.354;9.756;2022-08-18T17:04:57;-12905.91;;;26.19;100.00
14594;BME280;7383;52.354;9.756;2022-08-18T17:07:37;-12905.53;;;26.17;100.00
14594;BME280;7383;52.354;9.756;2022-08-18T17:13:13;-12904.69;;;26.12;100.00
14594;BME280;7383;52.354;9.756;2022-08-18T17:15:40;-12906.50;;;26.22;100.00
14594;BME280;7383;52.354;9.756;2022-08-18T17:18:07;-12906.41;;;26.22;100.00
14594;BME280;7383;52.354;9.756;2022-08-18T17:20:35;-12906.81;;;26.24;100.00
14594;BME280;7383;52.354;9.756;2022-08-18T17:23:08;-12906.56;;;26.23;100.00
14594;BME280;7383;52.354;9.756;2022-08-18T17:25:38;-12906.41;;;26.22;100.00
14594;BME280;7383;52.354;9.756;2022-08-18T17:28:08;-12906.16;;;26.20;100.00
14594;BME280;7383;52.354;9.756;2022-08-18T17:30:40;-12905.72;;;26.18;100.00
14594;BME280;7383;52.354;9.756;2022-08-18T17:33:11;-12905.38;;;26.16;100.00
14594;BME280;7383;52.354;9.756;2022-08-18T17:35:40;-12904.94;;;26.13;100.00
14594;BME280;7383;52.354;9.756;2022-08-18T17:38:12;-12904.28;;;26.09;100.00
14594;BME280;7383;52.354;9.756;2022-08-18T17:40:44;-12904.44;;;26.10;100.00